Time;durP1;ratioP1;P1;durP2;ratioP2;P2;SDS_P1;SDS_P2;PMS_P1;PMS_P2;Temp;Humidity;BMP_temperature;BMP_pressure;BME280_temperature;BME280_humidity;BME280_pressure;Samples;Min_cycle;Max_cycle;Signal;HPM_P1;HPM_P2
2022/02/06 00:00:59;;;;;;;11.05;2.42;;;9.30;90.90;;;;;;6129403;22;93211;-77
2022/02/06 00:03:27;;;;;;;8.43;3.17;;;9.30;91.00;;;;;;6128945;22;94982;-77
2022/02/06 00:05:54;;;;;;;8.15;2.20;;;9.30;91.00;;;;;;6155761;22;92333;-77
2022/02/06 00:08:21;;;;;;;6.07;2.55;;;9.30;90.90;;;;;;6129149;22;92450;-77
2022/02/06 00:10:48;;;;;;;9.55;2.75;;;9.40;91.00;;;;;;6155406;22;93109;-71
2022/02/06 00:13:16;;;;;;;7.45;2.55;;;9.40;91.00;;;;;;6129027;22;93980;-71
2022/02/06 00:15:43;;;;;;;8.30;2.60;;;9.40;91.00;;;;;;6129045;22;92415;-71
2022/02/06 00:18:10;;;;;;;8.45;2.50;;;9.40;91.00;;;;;;6155915;22;92769;-70
2022/02/06 00:20:51;;;;;;;15.02;3.38;;;9.40;90.90;;;;;;6153773;22;95625;-71
2022/02/06 00:23:21;;;;;;;8.15;2.30;;;9.40;91.00;;;;;;6155608;22;95304;-71
2022/02/06 00:33:34;;;;;;;7.72;3.00;;;9.50;90.80;;;;;;6155638;22;92418;-77
2022/02/06 00:41:15;;;;;;;13.20;3.65;;;9.50;90.70;;;;;;6155869;22;93126;-78
2022/02/06 00:43:43;;;;;;;15.93;3.85;;;9.50;90.70;;;;;;6127950;22;105486;-78
2022/02/06 00:46:12;;;;;;;15.25;3.28;;;9.60;90.60;;;;;;6153718;22;94886;-77
2022/02/06 00:48:43;;;;;;;12.13;3.17;;;9.50;90.50;;;;;;6155576;22;92800;-78
2022/02/06 00:51:15;;;;;;;14.45;3.60;;;9.50;90.50;;;;;;6128882;22;95724;-77
2022/02/06 00:53:43;;;;;;;10.35;3.38;;;9.60;90.40;;;;;;6105509;22;93043;-77
2022/02/06 00:56:10;;;;;;;13.13;2.97;;;9.60;90.50;;;;;;6128678;22;92457;-77
2022/02/06 00:58:37;;;;;;;20.90;3.83;;;9.60;90.50;;;;;;6155387;22;92436;-77
2022/02/06 01:01:05;;;;;;;15.75;3.20;;;9.60;90.50;;;;;;6128653;22;95628;-77
2022/02/06 01:03:32;;;;;;;16.67;4.25;;;9.70;90.50;;;;;;6155692;22;93079;-77
2022/02/06 01:05:59;;;;;;;14.82;3.65;;;9.70;90.50;;;;;;6129391;22;92485;-77
2022/02/06 01:08:26;;;;;;;16.88;3.38;;;9.70;90.40;;;;;;6129283;22;94301;-78
2022/02/06 01:10:54;;;;;;;11.32;3.08;;;9.60;90.30;;;;;;6127274;22;95426;-77
2022/02/06 01:13:34;;;;;;;12.25;3.00;;;9.60;90.50;;;;;;6128781;22;98849;-78
2022/02/06 01:16:12;;;;;;;20.38;4.55;;;9.70;90.60;;;;;;6155628;22;92426;-78
2022/02/06 01:18:46;;;;;;;16.27;4.25;;;9.70;90.50;;;;;;6129146;22;92842;-77
2022/02/06 01:26:25;;;;;;;15.27;3.85;;;9.70;90.60;;;;;;6155497;22;92343;-77
2022/02/06 01:29:03;;;;;;;10.02;2.75;;;9.70;90.50;;;;;;6129433;22;91902;-77
2022/02/06 01:34:02;;;;;;;15.57;3.90;;;9.70;90.50;;;;;;6155027;22;92833;-78
2022/02/06 01:36:44;;;;;;;12.13;3.25;;;9.70;90.60;;;;;;6127297;22;95241;-77
2022/02/06 01:41:48;;;;;;;19.63;3.33;;;9.70;90.70;;;;;;6155057;22;93310;-78
2022/02/06 01:44:59;;;;;;;13.40;3.40;;;9.70;90.50;;;;;;6155316;22;92929;-77
2022/02/06 02:03:29;;;;;;;14.77;3.53;;;9.70;90.90;;;;;;6127012;22;98034;-78
2022/02/06 02:22:00;;;;;;;17.58;3.92;;;9.60;91.10;;;;;;6128753;22;91784;-77
2022/02/06 02:45:11;;;;;;;14.38;3.97;;;9.60;91.30;;;;;;6153942;22;94486;-78
2022/02/06 02:47:42;;;;;;;18.50;4.25;;;9.60;91.20;;;;;;6154801;22;93278;-78
2022/02/06 02:50:22;;;;;;;16.30;3.78;;;9.60;91.20;;;;;;6154825;22;92370;-78
2022/02/06 03:03:23;;;;;;;18.33;3.75;;;9.70;91.00;;;;;;6154842;22;92314;-78
2022/02/06 03:05:52;;;;;;;18.48;3.80;;;9.70;91.00;;;;;;6103425;22;95472;-77
2022/02/06 03:08:21;;;;;;;12.18;4.22;;;9.70;91.00;;;;;;6128730;22;92741;-77
2022/02/06 03:10:54;;;;;;;18.92;4.75;;;9.70;91.10;;;;;;6127881;22;92447;-77
2022/02/06 03:13:24;;;;;;;23.88;4.55;;;9.70;90.90;;;;;;6155282;22;91574;-77
2022/02/06 03:18:26;;;;;;;23.88;5.20;;;9.80;91.00;;;;;;6127632;22;95418;-77
2022/02/06 03:20:54;;;;;;;16.40;4.05;;;9.80;91.00;;;;;;6154348;22;94751;-78
2022/02/06 03:23:21;;;;;;;18.20;4.18;;;9.80;91.10;;;;;;6128645;22;104738;-78
2022/02/06 03:25:53;;;;;;;18.85;4.30;;;9.70;91.20;;;;;;6129619;22;93609;-78
2022/02/06 03:28:25;;;;;;;21.35;4.10;;;9.70;91.30;;;;;;6130791;22;92984;-77
2022/02/06 03:30:52;;;;;;;19.60;4.25;;;9.70;91.30;;;;;;6129787;22;92422;-78
2022/02/06 03:33:20;;;;;;;16.08;3.45;;;9.70;91.30;;;;;;6128996;22;92367;-77
2022/02/06 03:35:47;;;;;;;16.77;4.00;;;9.70;91.10;;;;;;6156012;22;93132;-78
2022/02/06 03:38:15;;;;;;;18.70;4.30;;;9.80;91.10;;;;;;6155846;22;93009;-77
2022/02/06 03:40:53;;;;;;;19.23;3.88;;;9.70;91.00;;;;;;6129806;22;92448;-78
2022/02/06 03:43:29;;;;;;;19.83;4.20;;;9.70;91.10;;;;;;6132036;22;92326;-78
2022/02/06 03:46:04;;;;;;;16.88;4.07;;;9.70;91.00;;;;;;6153942;22;95581;-77
2022/02/06 03:48:46;;;;;;;22.08;4.53;;;9.80;91.00;;;;;;6155829;22;95441;-78
2022/02/06 03:51:22;;;;;;;14.63;3.35;;;9.70;90.90;;;;;;6129538;22;92351;-78
2022/02/06 03:53:53;;;;;;;17.35;3.78;;;9.70;91.00;;;;;;6156065;22;92387;-77
2022/02/06 03:56:21;;;;;;;19.60;4.30;;;9.70;91.10;;;;;;6129220;22;93204;-77
2022/02/06 03:58:49;;;;;;;16.30;3.28;;;9.70;91.20;;;;;;6128798;22;95727;-77
2022/02/06 04:01:15;;;;;;;20.95;4.05;;;9.80;91.20;;;;;;6128146;22;102310;-77
2022/02/06 04:03:42;;;;;;;18.75;4.38;;;9.70;91.20;;;;;;6129368;22;91784;-77
2022/02/06 04:06:09;;;;;;;17.42;4.45;;;9.70;91.20;;;;;;6154716;22;93311;-77
2022/02/06 04:08:38;;;;;;;17.80;3.67;;;9.80;91.20;;;;;;6104152;22;94157;-78
2022/02/06 04:11:10;;;;;;;16.55;3.97;;;9.80;91.10;;;;;;6154223;22;94717;-77
2022/02/06 04:13:52;;;;;;;17.02;3.47;;;9.80;91.10;;;;;;6130661;22;92745;-77
2022/02/06 04:16:26;;;;;;;18.92;3.95;;;9.70;91.20;;;;;;6128365;22;100988;-77
2022/02/06 04:19:04;;;;;;;13.80;3.13;;;9.70;91.30;;;;;;6155688;22;93246;-78
2022/02/06 04:21:32;;;;;;;15.45;3.83;;;9.80;91.30;;;;;;6129494;22;92825;-78
2022/02/06 04:23:59;;;;;;;19.30;3.33;;;9.70;91.30;;;;;;6104413;22;92459;-77
2022/02/06 04:26:26;;;;;;;17.58;4.38;;;9.80;91.30;;;;;;6129148;22;92773;-78
2022/02/06 04:28:53;;;;;;;21.08;4.10;;;9.80;91.50;;;;;;6104360;22;108002;-78
2022/02/06 04:31:20;;;;;;;15.82;3.80;;;9.80;91.30;;;;;;6154996;22;92375;-77
2022/02/06 04:33:50;;;;;;;16.40;4.13;;;9.80;91.30;;;;;;6129498;22;92455;-77
2022/02/06 04:36:19;;;;;;;11.93;3.30;;;9.80;91.40;;;;;;6126965;22;98014;-77
2022/02/06 04:38:58;;;;;;;14.75;3.55;;;9.80;91.30;;;;;;6129434;22;95224;-78
2022/02/06 05:16:48;;;;;;;12.02;3.08;;;9.90;90.80;;;;;;6155292;22;92441;-78
2022/02/06 05:35:00;;;;;;;14.63;3.33;;;9.90;90.60;;;;;;6155741;22;92520;-78
2022/02/06 05:37:27;;;;;;;15.98;3.35;;;9.90;90.60;;;;;;6155206;22;92359;-77
2022/02/06 05:39:55;;;;;;;16.58;4.38;;;9.90;90.60;;;;;;6129127;22;93207;-77
2022/02/06 05:42:22;;;;;;;14.48;3.05;;;10.00;90.70;;;;;;6128109;22;95387;-77
2022/02/06 05:44:56;;;;;;;17.00;4.05;;;9.90;90.50;;;;;;6155295;22;92457;-77
2022/02/06 05:47:24;;;;;;;;;;;10.00;90.70;;;;;;6156318;22;91616;-77
2022/02/06 05:49:51;;;;;;;16.52;3.90;;;9.90;90.80;;;;;;6156538;22;92398;-77
2022/02/06 05:52:20;;;;;;;20.85;4.35;;;9.90;90.80;;;;;;6128160;22;95575;-77
2022/02/06 05:54:47;;;;;;;17.30;3.38;;;9.90;90.80;;;;;;6153971;22;94874;-78
2022/02/06 05:57:14;;;;;;;16.20;3.55;;;9.90;90.70;;;;;;6129122;22;92436;-78
2022/02/06 05:59:41;;;;;;;13.63;3.38;;;9.90;90.60;;;;;;6128727;22;93033;-78
2022/02/06 06:02:08;;;;;;;14.85;3.47;;;9.90;90.60;;;;;;6128888;22;93268;-77
2022/02/06 06:04:35;;;;;;;24.00;3.75;;;10.00;90.60;;;;;;6128800;22;92316;-77
2022/02/06 06:07:03;;;;;;;17.30;4.43;;;10.00;90.40;;;;;;6154596;22;101256;-77
2022/02/06 06:09:30;;;;;;;11.50;2.90;;;10.00;90.50;;;;;;6154968;22;93215;-77
2022/02/06 06:11:57;;;;;;;12.50;3.30;;;10.10;90.50;;;;;;6155460;22;92947;-78
2022/02/06 06:14:28;;;;;;;14.27;4.13;;;10.10;90.40;;;;;;6128457;22;92324;-77
2022/02/06 06:16:56;;;;;;;16.85;3.22;;;10.10;90.30;;;;;;6128935;22;92498;-77
2022/02/06 06:19:24;;;;;;;12.38;3.22;;;10.00;90.30;;;;;;6101457;22;97495;-77
2022/02/06 06:21:56;;;;;;;19.92;3.75;;;10.00;90.30;;;;;;6155038;22;95342;-77
2022/02/06 06:24:25;;;;;;;15.30;3.20;;;10.10;90.30;;;;;;6155021;22;92394;-78
2022/02/06 06:26:53;;;;;;;18.52;4.22;;;10.10;90.30;;;;;;6155212;22;92449;-78
2022/02/06 06:29:20;;;;;;;18.88;3.97;;;10.00;90.20;;;;;;6128147;22;93161;-77
2022/02/06 06:31:47;;;;;;;14.23;2.97;;;10.00;90.20;;;;;;6127839;22;95353;-78
2022/02/06 06:34:14;;;;;;;15.50;3.67;;;10.00;90.20;;;;;;6128699;22;92402;-77
2022/02/06 06:36:46;;;;;;;11.38;2.90;;;10.00;90.20;;;;;;6155267;22;91674;-77
2022/02/06 06:39:20;;;;;;;13.35;3.35;;;10.00;90.20;;;;;;6154774;22;92901;-77
2022/02/06 06:41:57;;;;;;;17.77;3.45;;;10.00;90.20;;;;;;6130887;22;92880;-77
2022/02/06 06:44:25;;;;;;;14.30;4.22;;;10.00;90.30;;;;;;6153703;22;94670;-77
2022/02/06 06:46:52;;;;;;;17.67;3.70;;;10.10;90.20;;;;;;6154884;22;92338;-77
2022/02/06 06:49:19;;;;;;;14.20;3.75;;;10.00;90.10;;;;;;6154238;22;93190;-78
2022/02/06 06:51:46;;;;;;;16.77;3.28;;;10.10;90.10;;;;;;6153377;22;101064;-77
2022/02/06 06:54:18;;;;;;;14.93;3.80;;;10.10;90.00;;;;;;6126974;22;92804;-78
2022/02/06 06:56:59;;;;;;;11.32;3.25;;;10.00;90.00;;;;;;6130360;22;92752;-78
2022/02/06 06:59:45;;;;;;;15.70;3.95;;;10.00;90.10;;;;;;6155840;22;92905;-77
2022/02/06 07:02:27;;;;;;;17.00;3.83;;;10.00;90.10;;;;;;6156575;22;93120;-77
2022/02/06 07:04:58;;;;;;;13.73;3.37;;;10.00;90.30;;;;;;6130359;22;92402;-77
2022/02/06 07:07:26;;;;;;;19.15;4.13;;;10.00;90.30;;;;;;6156358;22;92430;-77
2022/02/06 07:09:53;;;;;;;10.32;2.88;;;10.00;90.00;;;;;;6154031;22;95667;-77
2022/02/06 07:12:20;;;;;;;7.90;2.80;;;10.00;90.10;;;;;;6129133;22;100097;-77
2022/02/06 07:14:48;;;;;;;17.42;3.63;;;10.00;90.00;;;;;;6155928;22;92670;-77
2022/02/06 07:17:16;;;;;;;11.88;2.67;;;10.00;90.30;;;;;;6129199;22;92472;-78
2022/02/06 07:19:44;;;;;;;16.38;2.78;;;10.00;90.30;;;;;;6128770;22;95833;-77
2022/02/06 07:22:15;;;;;;;11.95;3.08;;;10.00;90.40;;;;;;6129845;22;93130;-78
2022/02/06 07:24:47;;;;;;;17.92;3.58;;;10.00;90.40;;;;;;6129571;22;92547;-77
2022/02/06 07:27:22;;;;;;;21.83;3.58;;;10.10;90.30;;;;;;6156781;22;92174;-77
2022/02/06 07:29:50;;;;;;;15.63;3.22;;;10.10;90.20;;;;;;6129004;22;95695;-78
2022/02/06 07:32:18;;;;;;;20.27;3.25;;;10.10;90.20;;;;;;6155923;22;92960;-78
2022/02/06 07:34:45;;;;;;;19.17;3.78;;;10.10;90.10;;;;;;6153718;22;102712;-78
2022/02/06 07:37:12;;;;;;;17.75;3.28;;;10.10;90.00;;;;;;6129869;22;92466;-77
2022/02/06 07:39:40;;;;;;;13.88;2.75;;;10.20;89.90;;;;;;6155579;22;92463;-77
2022/02/06 07:42:09;;;;;;;15.15;3.00;;;10.20;89.60;;;;;;6155850;22;93098;-78
2022/02/06 07:44:37;;;;;;;13.57;3.28;;;10.20;89.40;;;;;;6128613;22;92415;-77
2022/02/06 07:47:13;;;;;;;16.20;3.38;;;10.20;89.20;;;;;;6128926;22;92689;-78
2022/02/06 07:49:47;;;;;;;16.40;2.90;;;10.30;89.20;;;;;;6155446;22;93232;-78
2022/02/06 07:52:16;;;;;;;16.38;3.90;;;10.30;89.00;;;;;;6156346;22;91831;-77
2022/02/06 07:54:43;;;;;;;12.38;2.25;;;10.40;88.90;;;;;;6128796;22;92936;-78
2022/02/06 07:57:10;;;;;;;15.38;2.67;;;10.40;89.00;;;;;;6129963;22;92354;-78
2022/02/06 07:59:37;;;;;;;17.85;3.67;;;10.40;89.60;;;;;;6153922;22;95576;-77
2022/02/06 08:02:06;;;;;;;13.45;2.95;;;10.40;89.30;;;;;;6128996;22;96882;-77
2022/02/06 08:04:35;;;;;;;14.18;2.90;;;10.50;89.50;;;;;;6129638;22;92483;-77
2022/02/06 08:07:03;;;;;;;14.82;2.92;;;10.50;89.40;;;;;;6128629;22;92513;-78
2022/02/06 08:12:11;;;;;;;14.38;3.28;;;10.40;89.30;;;;;;6154166;22;95720;-80
2022/02/06 08:17:25;;;;;;;17.13;3.28;;;10.40;89.60;;;;;;6154806;22;91821;-78
2022/02/06 08:19:53;;;;;;;14.45;2.88;;;10.50;89.50;;;;;;6155527;22;93075;-78
2022/02/06 08:22:22;;;;;;;19.38;3.88;;;10.50;89.40;;;;;;6155669;22;92316;-78
2022/02/06 08:24:50;;;;;;;16.08;4.13;;;10.50;89.30;;;;;;6126692;22;103481;-78
2022/02/06 08:27:18;;;;;;;15.45;3.88;;;10.50;89.50;;;;;;6129450;22;92458;-78
2022/02/06 08:29:46;;;;;;;15.50;3.00;;;10.50;89.20;;;;;;6128718;22;93499;-78
2022/02/06 08:32:15;;;;;;;14.50;3.15;;;10.60;89.30;;;;;;6129236;22;93128;-78
2022/02/06 08:34:46;;;;;;;14.73;2.85;;;10.60;89.20;;;;;;6129031;22;92437;-78
2022/02/06 08:37:13;;;;;;;14.93;3.33;;;10.60;89.30;;;;;;6129291;22;92344;-79
2022/02/06 08:39:42;;;;;;;13.98;2.58;;;10.60;89.10;;;;;;6155683;22;92905;-79
2022/02/06 08:42:11;;;;;;;12.27;2.42;;;10.60;88.90;;;;;;6156029;22;91829;-79
2022/02/06 08:44:40;;;;;;;13.90;3.05;;;10.60;89.00;;;;;;6155915;22;92390;-78
2022/02/06 08:47:10;;;;;;;17.85;3.08;;;10.70;89.20;;;;;;6153313;22;92555;-79
2022/02/06 08:49:38;;;;;;;16.10;3.20;;;10.60;89.00;;;;;;6153827;22;95440;-79
2022/02/06 08:52:06;;;;;;;16.92;3.40;;;10.60;88.80;;;;;;6129077;22;94160;-79
2022/02/06 08:54:35;;;;;;;18.00;3.30;;;10.60;89.20;;;;;;6155793;22;92390;-79
2022/02/06 08:57:21;;;;;;;15.73;3.05;;;10.70;89.30;;;;;;6155815;22;92309;-79
2022/02/06 08:59:49;;;;;;;17.13;3.00;;;10.70;89.50;;;;;;6128694;22;94913;-79
2022/02/06 09:02:16;;;;;;;13.65;2.88;;;10.60;89.90;;;;;;6155462;22;93154;-79
2022/02/06 09:04:47;;;;;;;15.43;2.80;;;10.60;89.80;;;;;;6155770;22;92402;-79
2022/02/06 09:07:15;;;;;;;14.73;2.85;;;10.60;89.90;;;;;;6129855;22;91708;-79
2022/02/06 09:09:47;;;;;;;15.50;3.20;;;10.60;90.00;;;;;;6129264;22;93337;-79
2022/02/06 09:12:16;;;;;;;18.23;3.22;;;10.60;90.10;;;;;;6155542;22;93544;-79
2022/02/06 09:14:43;;;;;;;10.45;2.65;;;10.60;90.20;;;;;;6128149;22;95689;-79
2022/02/06 09:17:10;;;;;;;12.57;2.83;;;10.60;90.30;;;;;;6128881;22;92460;-79
2022/02/06 09:19:39;;;;;;;8.88;2.50;;;10.60;90.40;;;;;;6155500;22;92993;-79
2022/02/06 09:22:08;;;;;;;14.73;5.75;;;10.50;90.50;;;;;;6155113;22;92859;-80
2022/02/06 09:24:36;;;;;;;15.25;2.92;;;10.50;90.70;;;;;;6128835;22;92692;-79
2022/02/06 09:27:04;;;;;;;13.77;3.40;;;10.50;90.70;;;;;;6128431;22;92413;-79
2022/02/06 09:29:32;;;;;;;13.13;3.80;;;10.50;90.70;;;;;;6155389;22;92950;-79
2022/02/06 09:37:16;;;;;;;13.52;3.67;;;10.50;90.90;;;;;;6155684;22;92441;-79
2022/02/06 09:39:43;;;;;;;7.07;2.33;;;10.50;90.80;;;;;;6102332;22;98068;-79
2022/02/06 09:42:11;;;;;;;12.18;3.58;;;10.40;90.90;;;;;;6128193;22;97805;-79
2022/02/06 09:44:40;;;;;;;13.13;2.92;;;10.40;91.40;;;;;;6129555;22;92331;-79
2022/02/06 09:47:07;;;;;;;8.18;2.00;;;10.40;91.20;;;;;;6128452;22;92438;-80
2022/02/06 09:49:34;;;;;;;10.05;2.28;;;10.40;91.30;;;;;;6128508;22;95687;-80
2022/02/06 09:52:01;;;;;;;6.35;2.38;;;10.40;91.40;;;;;;6128758;22;93038;-79
2022/02/06 09:54:29;;;;;;;5.03;1.73;;;10.40;91.40;;;;;;6155448;22;92362;-79
2022/02/06 09:56:59;;;;;;;5.22;1.95;;;10.40;91.40;;;;;;6155595;22;91653;-78
2022/02/06 09:59:30;;;;;;;5.28;2.17;;;10.30;91.30;;;;;;6103883;22;95899;-79
2022/02/06 10:01:59;;;;;;;6.93;2.30;;;10.30;91.40;;;;;;6154958;22;92818;-78
2022/02/06 10:04:31;;;;;;;6.05;1.77;;;10.30;91.50;;;;;;6102536;22;94809;-79
2022/02/06 10:07:13;;;;;;;11.38;2.40;;;10.30;91.50;;;;;;6128488;22;92998;-79
2022/02/06 10:09:47;;;;;;;7.55;2.60;;;10.40;91.60;;;;;;6128802;22;93264;-79
2022/02/06 10:12:16;;;;;;;10.50;2.40;;;10.30;91.60;;;;;;6154946;22;92929;-79
2022/02/06 10:14:42;;;;;;;7.90;2.78;;;10.30;91.70;;;;;;6128405;22;92472;-79
2022/02/06 10:17:10;;;;;;;9.60;1.77;;;10.30;91.60;;;;;;6128642;22;92514;-79
2022/02/06 10:19:51;;;;;;;5.30;1.70;;;10.30;91.60;;;;;;6103768;22;94777;-78
2022/02/06 10:22:29;;;;;;;7.18;2.03;;;10.30;91.40;;;;;;6128620;22;95558;-79
2022/02/06 10:25:02;;;;;;;4.82;2.10;;;10.30;91.30;;;;;;6155338;22;92325;-79
2022/02/06 10:27:54;;;;;;;7.97;1.80;;;10.30;91.40;;;;;;6155256;22;92385;-79
2022/02/06 10:30:39;;;;;;;5.80;1.60;;;10.30;91.30;;;;;;6102330;22;98062;-79
2022/02/06 10:33:15;;;;;;;2.85;1.17;;;10.30;91.20;;;;;;6129651;22;95098;-79
2022/02/06 10:35:45;;;;;;;4.65;1.88;;;10.30;91.20;;;;;;6156526;22;92805;-79
2022/02/06 10:38:20;;;;;;;6.60;1.60;;;10.30;91.30;;;;;;6155841;22;92424;-79
2022/02/06 10:41:05;;;;;;;7.60;1.92;;;10.40;91.30;;;;;;6129780;22;93072;-79
2022/02/06 10:43:33;;;;;;;4.55;1.60;;;10.40;91.30;;;;;;6105068;22;95341;-79
2022/02/06 10:46:12;;;;;;;6.47;1.73;;;10.40;91.40;;;;;;6156207;22;92838;-79
2022/02/06 10:48:52;;;;;;;5.05;1.63;;;10.40;91.30;;;;;;6129694;22;91694;-79
2022/02/06 10:51:43;;;;;;;2.80;1.35;;;10.50;91.40;;;;;;6155741;22;93023;-79
2022/02/06 10:54:25;;;;;;;3.42;1.10;;;10.50;91.40;;;;;;6155836;22;93971;-79
2022/02/06 10:57:12;;;;;;;5.53;1.45;;;10.50;91.50;;;;;;6154936;22;94749;-78
2022/02/06 10:59:53;;;;;;;6.28;1.58;;;10.50;91.30;;;;;;6130069;22;92526;-79
2022/02/06 11:02:32;;;;;;;6.18;1.73;;;10.50;91.20;;;;;;6155936;22;93171;-79
2022/02/06 11:05:05;;;;;;;2.53;1.02;;;10.40;91.30;;;;;;6129445;22;95540;-79
2022/02/06 11:07:33;;;;;;;1.40;0.52;;;10.20;87.90;;;;;;6156506;22;92418;-80
2022/02/06 11:10:12;;;;;;;3.58;0.90;;;9.90;87.00;;;;;;6156408;22;92372;-78
2022/02/06 11:12:52;;;;;;;0.88;0.82;;;9.70;88.70;;;;;;6156177;22;93101;-78
2022/02/06 11:15:49;;;;;;;3.30;1.05;;;9.50;89.30;;;;;;6129501;22;95454;-80
2022/02/06 11:18:20;;;;;;;1.15;0.80;;;9.40;89.10;;;;;;6117329;22;92363;-79
2022/02/06 11:21:10;;;;;;;1.30;0.60;;;9.10;89.70;;;;;;6104883;22;93277;-78
2022/02/06 11:23:37;;;;;;;2.78;0.70;;;9.00;90.70;;;;;;6154567;22;95398;-80
2022/02/06 11:26:17;;;;;;;2.15;1.00;;;8.90;90.60;;;;;;6155809;22;95372;-78
2022/02/06 11:28:45;;;;;;;4.70;1.20;;;8.80;90.80;;;;;;6156398;22;93227;-79
2022/02/06 11:31:17;;;;;;;2.17;0.65;;;8.70;91.30;;;;;;6128844;22;92486;-79
2022/02/06 11:33:45;;;;;;;0.65;0.60;;;8.70;90.80;;;;;;6156028;22;93147;-79
2022/02/06 11:43:00;;;;;;;1.73;0.70;;;8.60;90.60;;;;;;6155668;22;92347;-81
2022/02/06 11:45:16;;;;;;;2.75;0.60;;;8.50;90.80;;;;;;6155994;22;93159;-73
2022/02/06 11:47:47;;;;;;;2.20;0.70;;;8.50;90.30;;;;;;6104196;22;95688;-74
2022/02/06 11:50:15;;;;;;;2.55;1.02;;;8.50;90.50;;;;;;6127753;22;95468;-80
2022/02/06 11:52:58;;;;;;;1.80;0.68;;;8.50;90.50;;;;;;6129305;22;100612;-81
2022/02/06 11:55:31;;;;;;;2.53;0.50;;;8.60;90.10;;;;;;6155770;22;93218;-79
2022/02/06 11:58:33;;;;;;;1.92;0.60;;;8.70;90.00;;;;;;6156057;22;92990;-80
2022/02/06 12:01:06;;;;;;;2.15;0.80;;;8.80;89.90;;;;;;6129745;22;92371;-81
2022/02/06 12:03:53;;;;;;;1.65;0.63;;;8.90;89.40;;;;;;6128908;22;92469;-79
2022/02/06 12:06:30;;;;;;;1.20;0.68;;;9.00;89.50;;;;;;6155651;22;93218;-78
2022/02/06 12:09:00;;;;;;;2.70;0.98;;;9.00;88.60;;;;;;6129798;22;92728;-81
2022/02/06 12:11:32;;;;;;;3.25;0.80;;;9.00;87.50;;;;;;6155733;22;92454;-78
2022/02/06 12:14:08;;;;;;;2.05;0.93;;;9.10;87.40;;;;;;6128684;22;105726;-79
2022/02/06 12:16:48;;;;;;;1.40;0.90;;;9.20;87.50;;;;;;6153934;22;95373;-81
2022/02/06 12:19:28;;;;;;;2.22;0.98;;;9.10;86.90;;;;;;6155769;22;95374;-80
2022/02/06 12:21:56;;;;;;;1.70;0.88;;;9.30;87.00;;;;;;6129376;22;92561;-78
2022/02/06 12:24:38;;;;;;;1.40;0.90;;;9.30;86.70;;;;;;6154945;22;101890;-79
2022/02/06 12:27:25;;;;;;;2.75;1.20;;;9.40;86.70;;;;;;6129095;22;95975;-80
2022/02/06 12:30:00;;;;;;;2.92;1.40;;;9.40;86.80;;;;;;6155674;22;95434;-73
2022/02/06 12:32:39;;;;;;;2.00;1.20;;;9.40;85.90;;;;;;6128923;22;92515;-71
2022/02/06 12:37:55;;;;;;;1.50;0.43;;;9.30;85.10;;;;;;6129037;22;95879;-74
2022/02/06 12:40:26;;;;;;;1.65;0.70;;;9.30;85.60;;;;;;6129099;22;92928;-72
2022/02/06 12:43:00;;;;;;;1.83;0.90;;;9.30;85.40;;;;;;6128239;22;94838;-72
2022/02/06 12:45:30;;;;;;;2.78;1.35;;;9.40;85.30;;;;;;6128719;22;92544;-72
2022/02/06 12:48:02;;;;;;;2.17;0.90;;;9.40;85.10;;;;;;6155596;22;93209;-72
2022/02/06 12:50:37;;;;;;;2.10;0.80;;;9.50;84.90;;;;;;6155395;22;92892;-73
2022/02/06 12:53:06;;;;;;;3.83;1.20;;;9.50;84.80;;;;;;6155214;22;92389;-72
2022/02/06 12:55:36;;;;;;;1.40;0.75;;;9.50;84.60;;;;;;6128612;22;92457;-72
2022/02/06 12:58:07;;;;;;;3.30;0.90;;;9.50;84.20;;;;;;6155553;22;93303;-73
2022/02/06 13:00:44;;;;;;;2.38;0.80;;;9.60;84.60;;;;;;6155840;22;92855;-73
2022/02/06 13:03:21;;;;;;;2.50;0.80;;;9.60;84.30;;;;;;6129509;22;92905;-73
2022/02/06 13:05:56;;;;;;;1.80;0.77;;;9.70;84.30;;;;;;6155991;22;92408;-73
2022/02/06 13:08:23;;;;;;;2.60;1.33;;;9.70;83.80;;;;;;6102704;22;98204;-73
2022/02/06 13:10:52;;;;;;;2.13;1.00;;;9.80;84.20;;;;;;6128992;22;94334;-72
2022/02/06 13:13:23;;;;;;;2.22;0.80;;;9.80;83.70;;;;;;6155707;22;92825;-73
2022/02/06 13:16:35;;;;;;;3.20;1.00;;;9.70;83.80;;;;;;6128763;22;92476;-72
2022/02/06 13:22:11;;;;;;;5.50;1.00;;;9.90;83.80;;;;;;6155228;22;92909;-73
2022/02/06 13:37:48;;;;;;;2.90;1.13;;;9.80;84.30;;;;;;6128536;22;92583;-80
2022/02/06 13:40:21;;;;;;;4.43;1.00;;;9.70;84.50;;;;;;6128561;22;96097;-79
2022/02/06 13:42:56;;;;;;;;;;;9.70;84.60;;;;;;6081467;22;94267;-72
2022/02/06 13:45:25;;;;;;;8.00;1.65;;;9.60;84.60;;;;;;6157110;22;92864;-80
2022/02/06 13:47:54;;;;;;;2.50;1.10;;;9.60;84.80;;;;;;6155367;22;92350;-80
2022/02/06 13:50:26;;;;;;;6.28;1.40;;;9.70;84.90;;;;;;6128034;22;96920;-80
2022/02/06 13:53:11;;;;;;;6.10;1.20;;;9.80;84.50;;;;;;6155503;22;93452;-80
2022/02/06 13:55:57;;;;;;;7.35;1.85;;;9.80;84.40;;;;;;6155072;22;92288;-80
2022/02/06 13:58:26;;;;;;;6.22;1.52;;;9.90;84.20;;;;;;6155508;22;92345;-80
2022/02/06 14:01:04;;;;;;;9.07;1.67;;;9.90;84.60;;;;;;6127067;22;95691;-78
2022/02/06 14:03:49;;;;;;;5.80;1.25;;;10.10;84.00;;;;;;6154937;22;95152;-78
2022/02/06 14:06:21;;;;;;;7.72;1.50;;;10.10;83.30;;;;;;6128681;22;92421;-78
2022/02/06 14:12:06;;;;;;;7.93;1.80;;;10.30;83.10;;;;;;6127892;22;95585;-78
2022/02/06 14:14:46;;;;;;;9.68;1.92;;;10.30;82.60;;;;;;6154443;22;92964;-78
2022/02/06 14:17:34;;;;;;;8.65;1.88;;;10.20;82.10;;;;;;6155524;22;92301;-79
2022/02/06 14:20:14;;;;;;;9.77;2.23;;;10.30;82.10;;;;;;6104453;22;91651;-78
2022/02/06 14:22:48;;;;;;;4.32;1.80;;;10.30;82.00;;;;;;6103270;22;95020;-78
2022/02/06 14:25:24;;;;;;;6.80;1.90;;;10.30;81.60;;;;;;6154937;22;92914;-79
2022/02/06 14:27:51;;;;;;;7.13;2.33;;;10.40;81.80;;;;;;6153807;22;95750;-79
2022/02/06 14:30:32;;;;;;;8.48;1.60;;;10.40;81.50;;;;;;6154906;22;92439;-78
2022/02/06 14:33:09;;;;;;;9.48;1.95;;;10.40;81.30;;;;;;6128587;22;93288;-78
2022/02/06 14:35:45;;;;;;;8.13;2.40;;;10.40;81.30;;;;;;6128084;22;94513;-79
2022/02/06 14:38:22;;;;;;;8.93;2.63;;;10.40;81.40;;;;;;6129036;22;93048;-72
2022/02/06 14:40:54;;;;;;;7.97;2.33;;;10.50;81.50;;;;;;6154824;22;92425;-72
2022/02/06 14:43:38;;;;;;;11.55;2.22;;;10.50;81.40;;;;;;6128259;22;94280;-73
2022/02/06 14:46:07;;;;;;;5.85;1.67;;;10.50;81.10;;;;;;6128589;22;92987;-73
2022/02/06 14:48:36;;;;;;;9.82;1.98;;;10.50;80.70;;;;;;6155061;22;92446;-72
2022/02/06 14:51:03;;;;;;;5.88;1.45;;;10.40;80.00;;;;;;6128587;22;92556;-72
2022/02/06 14:53:30;;;;;;;10.75;1.95;;;10.40;80.00;;;;;;6153095;22;95493;-72
2022/02/06 14:55:57;;;;;;;7.88;2.15;;;10.50;80.10;;;;;;6127813;22;95523;-73
2022/02/06 14:58:25;;;;;;;7.43;2.35;;;10.50;80.30;;;;;;6128440;22;92564;-73
2022/02/06 15:00:53;;;;;;;9.60;2.70;;;10.50;80.40;;;;;;6103691;22;92391;-75
2022/02/06 15:03:20;;;;;;;9.48;1.55;;;10.40;80.70;;;;;;6128409;22;93212;-74
2022/02/06 15:05:49;;;;;;;4.88;1.42;;;10.40;80.80;;;;;;6154344;22;93141;-74
2022/02/06 15:08:17;;;;;;;7.00;2.17;;;10.30;80.00;;;;;;6128598;22;92428;-74
2022/02/06 15:10:46;;;;;;;5.07;1.30;;;10.30;80.20;;;;;;6154798;22;91628;-75
2022/02/06 15:13:13;;;;;;;5.40;1.65;;;10.30;79.70;;;;;;6128237;22;93298;-74
2022/02/06 15:16:08;;;;;;;7.68;1.90;;;10.20;80.20;;;;;;6103216;22;95576;-74
2022/02/06 15:18:40;;;;;;;8.10;1.58;;;10.10;81.50;;;;;;6154656;22;94733;-76
2022/02/06 15:21:09;;;;;;;5.55;1.63;;;9.90;81.90;;;;;;6154169;22;92449;-76
2022/02/06 15:23:39;;;;;;;7.25;1.95;;;9.90;82.50;;;;;;6155857;22;93717;-76
2022/02/06 15:26:07;;;;;;;5.85;1.42;;;9.80;82.30;;;;;;6155686;22;92830;-76
2022/02/06 15:28:34;;;;;;;9.25;2.13;;;9.80;82.80;;;;;;6104212;22;100221;-76
2022/02/06 15:31:01;;;;;;;6.53;1.50;;;9.70;82.40;;;;;;6128763;22;92544;-76
2022/02/06 15:33:28;;;;;;;4.43;1.40;;;9.60;82.30;;;;;;6129538;22;93269;-77
2022/02/06 15:35:55;;;;;;;2.00;0.80;;;9.50;80.70;;;;;;6129132;22;94236;-77
2022/02/06 15:38:25;;;;;;;2.00;1.05;;;9.00;79.60;;;;;;6129763;22;92522;-77
2022/02/06 15:40:57;;;;;;;4.15;0.90;;;8.50;84.50;;;;;;6129107;22;93041;-77
2022/02/06 15:43:24;;;;;;;1.00;0.50;;;7.90;84.70;;;;;;6127411;22;101337;-77
2022/02/06 15:45:51;;;;;;;2.65;1.58;;;7.70;87.70;;;;;;6104133;22;95568;-77
2022/02/06 15:48:18;;;;;;;0.73;0.70;;;7.40;87.20;;;;;;6129296;22;92479;-76
2022/02/06 15:50:45;;;;;;;1.27;0.73;;;7.20;90.00;;;;;;6155974;22;92692;-76
2022/02/06 15:53:13;;;;;;;2.28;0.90;;;7.00;90.20;;;;;;6128915;22;95629;-76
2022/02/06 15:55:40;;;;;;;2.60;1.10;;;6.90;90.50;;;;;;6128800;22;95546;-77
2022/02/06 15:58:08;;;;;;;2.08;1.48;;;6.80;89.90;;;;;;6104298;22;92808;-77
2022/02/06 16:00:35;;;;;;;3.28;1.40;;;6.70;90.50;;;;;;6156522;22;91653;-76
2022/02/06 16:03:03;;;;;;;2.17;0.57;;;6.70;90.50;;;;;;6155546;22;93292;-76
2022/02/06 16:05:30;;;;;;;3.25;0.82;;;6.60;90.60;;;;;;6129144;22;94606;-76
2022/02/06 16:07:57;;;;;;;3.88;0.88;;;6.60;91.40;;;;;;6127872;22;94874;-76
2022/02/06 16:10:24;;;;;;;3.97;1.10;;;6.50;91.50;;;;;;6155799;22;92383;-76